Time,TemperatureF,DewpointF,PressureIn,WindDirection,WindDirectionDegrees,WindSpeedMPH,WindSpeedGustMPH,Humidity,HourlyPrecipIn,Conditions,Clouds,dailyrainin,SolarRadiationWatts/m^2,SoftwareType,DateUTC
2013-02-05 00:11:00,47.1,42.0,30.10,NW,313,0.0,0.0,82,0.00,,,0.00,0,weatherlink.com 1.10,2013-02-05 05:11:00,
2013-02-05 00:26:00,46.7,42.0,30.09,NW,313,0.0,0.0,83,0.00,,,0.00,0,weatherlink.com 1.10,2013-02-05 05:26:00,
2013-02-05 00:41:00,46.5,42.0,30.09,NW,313,0.0,0.0,84,0.00,,,0.00,0,weatherlink.com 1.10,2013-02-05 05:41:00,
2013-02-05 00:56:00,46.3,43.0,30.08,NW,313,0.0,0.0,87,0.00,,,0.00,0,weatherlink.com 1.10,2013-02-05 05:56:00,
2013-02-05 01:11:00,45.9,42.0,30.07,NW,313,0.0,0.0,87,0.00,,,0.00,0,weatherlink.com 1.10,2013-02-05 06:11:00,
2013-02-05 01:26:00,45.7,43.0,30.07,NW,313,0.0,0.0,89,0.00,,,0.00,0,weatherlink.com 1.10,2013-02-05 06:26:00,
2013-02-05 01:41:00,45.6,43.0,30.06,NW,313,0.0,0.0,91,0.00,,,0.00,0,weatherlink.com 1.10,2013-02-05 06:41:00,
2013-02-05 01:57:00,46.6,44.0,30.04,NW,313,0.0,0.0,91,0.00,,,0.00,0,weatherlink.com 1.10,2013-02-05 06:57:00,
2013-02-05 02:12:00,47.3,44.0,30.03,NW,313,0.0,1.0,88,0.00,,,0.00,0,weatherlink.com 1.10,2013-02-05 07:12:00,
2013-02-05 02:27:00,48.2,45.0,30.03,NW,313,0.0,0.0,87,0.00,,,0.00,0,weatherlink.com 1.10,2013-02-05 07:27:00,
2013-02-05 02:42:00,47.1,43.0,30.03,NW,313,0.0,0.0,86,0.00,,,0.00,0,weatherlink.com 1.10,2013-02-05 07:42:00,
2013-02-05 02:57:00,46.4,43.0,30.02,NW,313,0.0,0.0,88,0.00,,,0.00,0,weatherlink.com 1.10,2013-02-05 07:57:00,
2013-02-05 03:12:00,46.0,43.0,30.02,NW,313,1.0,2.0,89,0.00,,,0.00,0,weatherlink.com 1.10,2013-02-05 08:12:00,
2013-02-05 03:27:00,45.4,43.0,30.04,NW,313,0.0,1.0,90,0.00,,,0.00,0,weatherlink.com 1.10,2013-02-05 08:27:00,
2013-02-05 03:42:00,45.5,43.0,30.04,NW,313,0.0,1.0,92,0.00,,,0.00,0,weatherlink.com 1.10,2013-02-05 08:42:00,
2013-02-05 03:57:00,45.7,44.0,30.05,NW,313,0.0,2.0,92,0.00,,,0.00,0,weatherlink.com 1.10,2013-02-05 08:57:00,
2013-02-05 04:12:00,46.6,44.0,30.05,NW,313,0.0,1.0,91,0.00,,,0.00,0,weatherlink.com 1.10,2013-02-05 09:12:00,
2013-02-05 04:27:00,46.5,44.0,30.05,NW,313,0.0,1.0,89,0.00,,,0.00,0,weatherlink.com 1.10,2013-02-05 09:27:00,
2013-02-05 04:42:00,46.3,44.0,30.05,NW,313,0.0,0.0,90,0.00,,,0.00,0,weatherlink.com 1.10,2013-02-05 09:42:00,
2013-02-05 04:57:00,46.0,43.0,30.05,NW,313,0.0,0.0,89,0.00,,,0.00,0,weatherlink.com 1.10,2013-02-05 09:57:00,
2013-02-05 05:12:00,45.4,42.0,30.04,NW,313,0.0,0.0,89,0.00,,,0.00,0,weatherlink.com 1.10,2013-02-05 10:12:00,
2013-02-05 05:27:00,45.2,43.0,30.05,NW,313,0.0,0.0,90,0.00,,,0.00,0,weatherlink.com 1.10,2013-02-05 10:27:00,
2013-02-05 05:42:00,44.9,42.0,30.05,NW,313,0.0,0.0,90,0.00,,,0.00,0,weatherlink.com 1.10,2013-02-05 10:42:00,
2013-02-05 05:57:00,44.6,42.0,30.05,NW,313,0.0,0.0,91,0.00,,,0.00,0,weatherlink.com 1.10,2013-02-05 10:57:00,
2013-02-05 06:12:00,44.5,42.0,30.07,NW,313,0.0,0.0,92,0.00,,,0.00,0,weatherlink.com 1.10,2013-02-05 11:12:00,
2013-02-05 06:27:00,44.0,42.0,30.07,NW,313,0.0,0.0,91,0.00,,,0.00,0,weatherlink.com 1.10,2013-02-05 11:27:00,
2013-02-05 06:42:00,43.6,42.0,30.08,NW,313,0.0,0.0,92,0.00,,,0.00,0,weatherlink.com 1.10,2013-02-05 11:42:00,
2013-02-05 06:57:00,43.5,42.0,30.08,NW,313,0.0,0.0,93,0.00,,,0.00,0,weatherlink.com 1.10,2013-02-05 11:57:00,
2013-02-05 07:12:00,43.3,42.0,30.09,NW,313,0.0,0.0,93,0.00,,,0.00,0,weatherlink.com 1.10,2013-02-05 12:12:00,
2013-02-05 07:27:00,43.3,42.0,30.09,NW,313,0.0,0.0,93,0.00,,,0.00,12,weatherlink.com 1.10,2013-02-05 12:27:00,
2013-02-05 07:42:00,43.7,42.0,30.10,NW,313,0.0,0.0,93,0.00,,,0.00,23,weatherlink.com 1.10,2013-02-05 12:42:00,
2013-02-05 07:57:00,44.3,42.0,30.10,NW,313,0.0,0.0,93,0.00,,,0.00,25,weatherlink.com 1.10,2013-02-05 12:57:00,
2013-02-05 08:12:00,45.3,42.0,30.11,NW,313,0.0,1.0,89,0.00,,,0.00,28,weatherlink.com 1.10,2013-02-05 13:12:00,
2013-02-05 08:27:00,47.1,43.0,30.11,NW,313,0.0,2.0,85,0.00,,,0.00,195,weatherlink.com 1.10,2013-02-05 13:27:00,
2013-02-05 08:42:00,51.0,42.0,30.11,NNE,32,0.0,3.0,72,0.00,,,0.00,258,weatherlink.com 1.10,2013-02-05 13:42:00,
2013-02-05 08:57:00,54.4,44.0,30.12,NNE,31,0.0,1.0,68,0.00,,,0.00,308,weatherlink.com 1.10,2013-02-05 13:57:00,
2013-02-05 09:12:00,57.1,44.0,30.12,NNE,31,0.0,1.0,62,0.00,,,0.00,359,weatherlink.com 1.10,2013-02-05 14:12:00,
2013-02-05 09:27:00,59.3,43.0,30.12,North,349,0.0,3.0,55,0.00,,,0.00,406,weatherlink.com 1.10,2013-02-05 14:27:00,
2013-02-05 09:42:00,60.7,41.0,30.12,NNW,344,2.0,5.0,49,0.00,,,0.00,448,weatherlink.com 1.10,2013-02-05 14:42:00,
2013-02-05 10:13:00,62.9,42.0,30.12,North,9,1.0,3.0,47,0.00,,,0.00,526,weatherlink.com 1.10,2013-02-05 15:13:00,
2013-02-05 10:28:00,64.3,43.0,30.12,ESE,123,1.0,4.0,47,0.00,,,0.00,561,weatherlink.com 1.10,2013-02-05 15:28:00,
2013-02-05 10:43:00,65.3,43.0,30.12,ENE,67,0.0,4.0,44,0.00,,,0.00,594,weatherlink.com 1.10,2013-02-05 15:43:00,
2013-02-05 10:58:00,65.9,42.0,30.12,SE,134,2.0,4.0,42,0.00,,,0.00,624,weatherlink.com 1.10,2013-02-05 15:58:00,
2013-02-05 11:13:00,65.7,43.0,30.12,South,172,5.0,8.0,44,0.00,,,0.00,647,weatherlink.com 1.10,2013-02-05 16:13:00,
2013-02-05 11:28:00,65.7,44.0,30.11,SE,131,3.0,7.0,45,0.00,,,0.00,654,weatherlink.com 1.10,2013-02-05 16:28:00,
2013-02-05 11:43:00,66.1,43.0,30.11,SE,133,1.0,7.0,43,0.00,,,0.00,684,weatherlink.com 1.10,2013-02-05 16:43:00,
2013-02-05 11:58:00,67.2,44.0,30.10,SSE,153,2.0,7.0,43,0.00,,,0.00,687,weatherlink.com 1.10,2013-02-05 16:58:00,
2013-02-05 12:13:00,68.4,45.0,30.09,SW,230,4.0,6.0,43,0.00,,,0.00,705,weatherlink.com 1.10,2013-02-05 17:13:00,
2013-02-05 12:28:00,70.0,46.0,30.09,SSW,197,2.0,5.0,42,0.00,,,0.00,708,weatherlink.com 1.10,2013-02-05 17:28:00,
2013-02-05 12:43:00,70.5,49.0,30.08,NW,307,3.0,8.0,46,0.00,,,0.00,710,weatherlink.com 1.10,2013-02-05 17:43:00,
2013-02-05 12:58:00,70.6,50.0,30.08,NNW,340,2.0,8.0,48,0.00,,,0.00,700,weatherlink.com 1.10,2013-02-05 17:58:00,
2013-02-05 13:13:00,71.4,49.0,30.07,West,280,3.0,7.0,46,0.00,,,0.00,693,weatherlink.com 1.10,2013-02-05 18:13:00,
2013-02-05 13:28:00,71.6,50.0,30.05,ENE,72,0.0,7.0,46,0.00,,,0.00,677,weatherlink.com 1.10,2013-02-05 18:28:00,
2013-02-05 13:43:00,72.8,50.0,30.04,SSW,207,1.0,6.0,44,0.00,,,0.00,664,weatherlink.com 1.10,2013-02-05 18:43:00,
2013-02-05 13:58:00,73.1,50.0,30.03,SSW,199,4.0,7.0,44,0.00,,,0.00,645,weatherlink.com 1.10,2013-02-05 18:58:00,
2013-02-05 14:13:00,73.5,50.0,30.03,WNW,287,1.0,4.0,43,0.00,,,0.00,622,weatherlink.com 1.10,2013-02-05 19:13:00,
2013-02-05 14:28:00,74.3,50.0,30.02,SSW,203,5.0,9.0,43,0.00,,,0.00,591,weatherlink.com 1.10,2013-02-05 19:28:00,
2013-02-05 14:43:00,74.4,51.0,30.02,SSW,201,2.0,7.0,44,0.00,,,0.00,568,weatherlink.com 1.10,2013-02-05 19:43:00,
2013-02-05 14:59:00,75.4,51.0,30.02,SW,224,2.0,6.0,43,0.00,,,0.00,503,weatherlink.com 1.10,2013-02-05 19:59:00,
2013-02-05 15:14:00,75.4,51.0,30.02,SSW,202,1.0,7.0,42,0.00,,,0.00,452,weatherlink.com 1.10,2013-02-05 20:14:00,
2013-02-05 15:29:00,76.0,51.0,30.01,SW,236,0.0,5.0,42,0.00,,,0.00,483,weatherlink.com 1.10,2013-02-05 20:29:00,
2013-02-05 15:44:00,75.9,51.0,30.01,SW,217,0.0,8.0,42,0.00,,,0.00,325,weatherlink.com 1.10,2013-02-05 20:44:00,
2013-02-05 15:59:00,75.5,51.0,30.01,SSW,211,2.0,7.0,43,0.00,,,0.00,348,weatherlink.com 1.10,2013-02-05 20:59:00,
2013-02-05 16:14:00,76.0,51.0,30.01,SW,215,3.0,5.0,42,0.00,,,0.00,362,weatherlink.com 1.10,2013-02-05 21:14:00,
2013-02-05 16:29:00,75.3,50.0,30.01,WNW,303,3.0,7.0,41,0.00,,,0.00,211,weatherlink.com 1.10,2013-02-05 21:29:00,
2013-02-05 16:44:00,74.2,50.0,30.01,NW,321,3.0,3.0,43,0.00,,,0.00,128,weatherlink.com 1.10,2013-02-05 21:44:00,
2013-02-05 16:59:00,73.9,51.0,30.01,WSW,239,2.0,6.0,44,0.00,,,0.00,95,weatherlink.com 1.10,2013-02-05 21:59:00,
2013-02-05 17:14:00,73.3,50.0,30.01,West,261,0.0,3.0,44,0.00,,,0.00,56,weatherlink.com 1.10,2013-02-05 22:14:00,
2013-02-05 17:29:00,72.8,51.0,30.01,West,261,0.0,1.0,46,0.00,,,0.00,30,weatherlink.com 1.10,2013-02-05 22:29:00,
2013-02-05 17:44:00,72.3,51.0,30.01,West,261,0.0,0.0,47,0.00,,,0.00,46,weatherlink.com 1.10,2013-02-05 22:44:00,
2013-02-05 17:59:00,71.5,52.0,30.02,West,261,0.0,0.0,50,0.00,,,0.00,12,weatherlink.com 1.10,2013-02-05 22:59:00,
2013-02-05 18:14:00,70.4,52.0,30.01,West,261,0.0,0.0,52,0.00,,,0.00,0,weatherlink.com 1.10,2013-02-05 23:14:00,
2013-02-05 18:29:00,68.6,52.0,30.01,West,261,0.0,0.0,56,0.00,,,0.00,0,weatherlink.com 1.10,2013-02-05 23:29:00,
2013-02-05 18:44:00,67.5,53.0,30.01,West,261,0.0,0.0,60,0.00,,,0.00,0,weatherlink.com 1.10,2013-02-05 23:44:00,
2013-02-05 18:59:00,66.7,52.0,30.02,West,261,0.0,2.0,60,0.00,,,0.00,0,weatherlink.com 1.10,2013-02-05 23:59:00,
2013-02-05 19:14:00,67.0,52.0,30.02,NNW,332,1.0,3.0,59,0.00,,,0.00,0,weatherlink.com 1.10,2013-02-06 00:14:00,
2013-02-05 19:29:00,67.3,53.0,30.03,WNW,290,1.0,3.0,61,0.00,,,0.00,0,weatherlink.com 1.10,2013-02-06 00:29:00,
2013-02-05 19:44:00,66.7,54.0,30.03,WNW,290,0.0,2.0,63,0.00,,,0.00,0,weatherlink.com 1.10,2013-02-06 00:44:00,
2013-02-05 19:59:00,65.9,53.0,30.04,WNW,290,0.0,2.0,64,0.00,,,0.00,0,weatherlink.com 1.10,2013-02-06 00:59:00,
2013-02-05 20:14:00,65.1,53.0,30.04,WNW,290,1.0,1.0,66,0.00,,,0.00,0,weatherlink.com 1.10,2013-02-06 01:14:00,
2013-02-05 20:29:00,64.5,53.0,30.04,WNW,290,0.0,1.0,67,0.00,,,0.00,0,weatherlink.com 1.10,2013-02-06 01:29:00,
2013-02-05 20:44:00,63.9,54.0,30.05,WNW,290,0.0,0.0,70,0.00,,,0.00,0,weatherlink.com 1.10,2013-02-06 01:44:00,
2013-02-05 20:59:00,63.5,54.0,30.05,WNW,290,0.0,1.0,70,0.00,,,0.00,0,weatherlink.com 1.10,2013-02-06 01:59:00,
2013-02-05 21:14:00,63.0,53.0,30.05,WNW,290,0.0,0.0,71,0.00,,,0.00,0,weatherlink.com 1.10,2013-02-06 02:14:00,
2013-02-05 21:29:00,62.3,54.0,30.06,WNW,290,0.0,0.0,73,0.00,,,0.00,0,weatherlink.com 1.10,2013-02-06 02:29:00,
2013-02-05 21:44:00,61.6,54.0,30.06,WNW,290,0.0,0.0,75,0.00,,,0.00,0,weatherlink.com 1.10,2013-02-06 02:44:00,
2013-02-05 21:59:00,61.3,54.0,30.06,WNW,290,0.0,1.0,78,0.00,,,0.00,0,weatherlink.com 1.10,2013-02-06 02:59:00,
2013-02-05 22:14:00,61.6,54.0,30.06,NE,45,0.0,2.0,77,0.00,,,0.00,0,weatherlink.com 1.10,2013-02-06 03:14:00,
2013-02-05 22:29:00,62.1,54.0,30.07,East,80,0.0,2.0,74,0.00,,,0.00,0,weatherlink.com 1.10,2013-02-06 03:29:00,
2013-02-05 22:44:00,62.5,53.0,30.07,NE,36,0.0,3.0,71,0.00,,,0.00,0,weatherlink.com 1.10,2013-02-06 03:44:00,
2013-02-05 22:59:00,62.6,53.0,30.08,NE,50,0.0,2.0,70,0.00,,,0.00,0,weatherlink.com 1.10,2013-02-06 03:59:00,
2013-02-05 23:14:00,62.6,53.0,30.07,NE,50,0.0,1.0,71,0.00,,,0.00,0,weatherlink.com 1.10,2013-02-06 04:14:00,
2013-02-05 23:29:00,62.4,54.0,30.07,NE,50,0.0,0.0,73,0.00,,,0.00,0,weatherlink.com 1.10,2013-02-06 04:29:00,
2013-02-05 23:44:00,62.1,53.0,30.07,NE,50,0.0,0.0,73,0.00,,,0.00,0,weatherlink.com 1.10,2013-02-06 04:44:00,
2013-02-05 23:59:00,62.0,54.0,30.06,NE,50,0.0,1.0,76,0.00,,,0.00,0,weatherlink.com 1.10,2013-02-06 04:59:00,